createdAt,value
2019-03-15T00:00:03.664Z,1003.93
2019-03-15T00:01:02.508Z,1003.93
2019-03-15T00:02:01.723Z,1003.93
2019-03-15T00:03:02.018Z,1004.03
2019-03-15T00:04:02.249Z,1004.03
2019-03-15T00:05:02.545Z,1004.03
2019-03-15T00:06:01.777Z,1004.03
2019-03-15T00:07:01.988Z,1004.07
2019-03-15T00:08:01.832Z,1004.07
2019-03-15T00:09:02.038Z,1004.07
2019-03-15T00:10:02.319Z,1004.07
2019-03-15T00:11:02.610Z,1004.17
2019-03-15T00:12:01.839Z,1004.17
2019-03-15T00:13:02.023Z,1004.17
2019-03-15T00:14:02.264Z,1004.17
2019-03-15T00:15:01.777Z,1004.04
2019-03-15T00:16:01.898Z,1004.04
2019-03-15T00:17:01.738Z,1004.04
2019-03-15T00:18:01.852Z,1004.04
2019-03-15T00:19:02.079Z,1004.17
2019-03-15T00:20:02.332Z,1004.17
2019-03-15T00:21:02.565Z,1004.17
2019-03-15T00:22:02.502Z,1004.17
2019-03-15T00:23:01.706Z,1004.11
2019-03-15T00:24:01.906Z,1004.11
2019-03-15T00:25:02.144Z,1004.11
2019-03-15T00:26:02.326Z,1004.11
2019-03-15T00:27:02.498Z,1004.05
2019-03-15T00:28:01.722Z,1004.05
2019-03-15T00:29:02.053Z,1004.05
2019-03-15T00:30:01.856Z,1004.05
2019-03-15T00:31:02.150Z,1004.13
2019-03-15T00:32:02.388Z,1004.13
2019-03-15T00:33:01.603Z,1004.13
2019-03-15T00:34:01.943Z,1004.13
2019-03-15T00:35:02.175Z,1003.97
2019-03-15T00:36:02.301Z,1003.97
2019-03-15T00:37:02.556Z,1003.97
2019-03-15T00:38:01.761Z,1003.97
2019-03-15T00:39:02.051Z,1004.16
2019-03-15T00:40:02.268Z,1004.16
2019-03-15T00:41:02.525Z,1004.16
2019-03-15T00:42:01.790Z,1004.16
2019-03-15T00:43:02.036Z,1004.01
2019-03-15T00:44:02.284Z,1004.01
2019-03-15T00:45:02.597Z,1004.01
2019-03-15T00:46:01.906Z,1004.01
2019-03-15T00:47:02.051Z,1004.07
2019-03-15T00:48:02.318Z,1004.07
2019-03-15T00:49:02.450Z,1004.07
2019-03-15T00:50:02.510Z,1004.07
2019-03-15T00:51:01.730Z,1003.97
2019-03-15T00:52:01.924Z,1003.97
2019-03-15T00:53:02.222Z,1003.97
2019-03-15T00:54:02.557Z,1003.97
2019-03-15T00:55:01.714Z,1003.95
2019-03-15T00:56:01.858Z,1003.95
2019-03-15T00:57:02.101Z,1003.95
2019-03-15T00:58:02.298Z,1003.95
2019-03-15T00:59:02.531Z,1003.9
2019-03-15T01:00:03.683Z,1003.9
2019-03-15T01:01:02.534Z,1003.9
2019-03-15T01:02:01.687Z,1003.9
2019-03-15T01:03:02.889Z,1003.91
2019-03-15T01:04:02.149Z,1003.91
2019-03-15T01:05:02.482Z,1003.91
2019-03-15T01:06:01.625Z,1003.91
2019-03-15T01:07:01.830Z,1003.88
2019-03-15T01:08:02.120Z,1003.88
2019-03-15T01:09:02.307Z,1003.88
2019-03-15T01:10:02.626Z,1003.88
2019-03-15T01:11:01.801Z,1003.87
2019-03-15T01:12:02.041Z,1003.87
2019-03-15T01:13:02.232Z,1003.87
2019-03-15T01:14:02.418Z,1003.87
2019-03-15T01:15:01.740Z,1003.84
2019-03-15T01:16:01.915Z,1003.84
2019-03-15T01:17:02.089Z,1003.84
2019-03-15T01:18:02.388Z,1003.84
2019-03-15T01:19:02.596Z,1003.9
2019-03-15T01:20:03.049Z,1003.9
2019-03-15T01:21:01.670Z,1003.9
2019-03-15T01:22:01.964Z,1003.9
2019-03-15T01:23:02.169Z,1003.83
2019-03-15T01:24:02.302Z,1003.83
2019-03-15T01:25:02.539Z,1003.83
2019-03-15T01:26:01.715Z,1003.66
2019-03-15T01:27:01.982Z,1003.66
2019-03-15T01:28:02.152Z,1003.66
2019-03-15T01:29:02.434Z,1003.66
2019-03-15T01:30:01.686Z,1003.52
2019-03-15T01:31:01.947Z,1003.52
2019-03-15T01:32:02.205Z,1003.52
2019-03-15T01:33:02.289Z,1003.52
2019-03-15T01:34:02.627Z,1003.43
2019-03-15T01:35:02.365Z,1003.43
2019-03-15T01:36:02.542Z,1003.43
2019-03-15T01:37:01.830Z,1003.43
2019-03-15T01:38:01.996Z,1003.5
2019-03-15T01:39:02.282Z,1003.5
2019-03-15T01:40:02.608Z,1003.5
2019-03-15T01:41:01.741Z,1003.5
2019-03-15T01:42:01.952Z,1003.5
2019-03-15T01:43:02.179Z,1003.5
2019-03-15T01:44:03.491Z,1003.5
2019-03-15T01:45:01.780Z,1003.5
2019-03-15T01:46:01.898Z,1003.3
2019-03-15T01:47:02.173Z,1003.3
2019-03-15T01:48:02.403Z,1003.3
2019-03-15T01:49:01.648Z,1003.3
2019-03-15T01:50:01.927Z,1003.3
2019-03-15T01:51:02.083Z,1003.3
2019-03-15T01:52:02.290Z,1003.3
2019-03-15T01:53:02.552Z,1003.3
2019-03-15T01:54:01.727Z,1003.38
2019-03-15T01:55:02.073Z,1003.38
2019-03-15T01:56:02.197Z,1003.38
2019-03-15T01:57:02.411Z,1003.38
2019-03-15T01:58:01.756Z,1003.41
2019-03-15T01:59:01.926Z,1003.41
2019-03-15T02:00:04.190Z,1003.41
2019-03-15T02:01:02.016Z,1003.41
2019-03-15T02:02:02.192Z,1003.22
2019-03-15T02:03:02.937Z,1003.22
2019-03-15T02:04:02.491Z,1003.22
2019-03-15T02:05:01.756Z,1003.22
2019-03-15T02:06:01.924Z,1003.21
2019-03-15T02:07:02.180Z,1003.21
2019-03-15T02:08:02.417Z,1003.21
2019-03-15T02:09:02.570Z,1003.21
2019-03-15T02:10:01.790Z,1003.16
2019-03-15T02:11:02.065Z,1003.16
2019-03-15T02:12:02.268Z,1003.16
2019-03-15T02:13:02.545Z,1003.16
2019-03-15T02:14:02.142Z,1003.09
2019-03-15T02:15:02.330Z,1003.09
2019-03-15T02:16:02.342Z,1003.09
2019-03-15T02:17:02.511Z,1003.09
2019-03-15T02:18:01.779Z,1002.95
2019-03-15T02:19:02.016Z,1002.95
2019-03-15T02:20:02.282Z,1002.95
2019-03-15T02:21:02.478Z,1002.95
2019-03-15T02:22:01.776Z,1002.9
2019-03-15T02:23:01.909Z,1002.9
2019-03-15T02:24:02.092Z,1002.9
2019-03-15T02:25:02.432Z,1002.9
2019-03-15T02:26:02.590Z,1002.75
2019-03-15T02:27:01.741Z,1002.75
2019-03-15T02:28:02.105Z,1002.75
2019-03-15T02:29:02.270Z,1002.75
2019-03-15T02:30:02.591Z,1002.81
2019-03-15T02:31:02.392Z,1002.81
2019-03-15T02:32:02.570Z,1002.81
2019-03-15T02:33:01.861Z,1002.81
2019-03-15T02:34:02.040Z,1002.78
2019-03-15T02:35:02.493Z,1002.78
2019-03-15T02:36:01.607Z,1002.78
2019-03-15T02:37:01.908Z,1002.78
2019-03-15T02:38:02.078Z,1002.76
2019-03-15T02:39:02.344Z,1002.76
2019-03-15T02:40:02.592Z,1002.76
2019-03-15T02:41:01.787Z,1002.76
2019-03-15T02:42:02.072Z,1002.64
2019-03-15T02:43:02.286Z,1002.64
2019-03-15T02:44:02.431Z,1002.64
2019-03-15T02:45:01.696Z,1002.64
2019-03-15T02:46:01.974Z,1002.53
2019-03-15T02:47:02.182Z,1002.53
2019-03-15T02:48:02.496Z,1002.53
2019-03-15T02:49:01.690Z,1002.53
2019-03-15T02:50:02.430Z,1002.59
2019-03-15T02:51:02.082Z,1002.59
2019-03-15T02:52:02.268Z,1002.59
2019-03-15T02:53:02.566Z,1002.59
2019-03-15T02:54:01.704Z,1002.32
2019-03-15T02:55:01.893Z,1002.32
2019-03-15T02:56:02.110Z,1002.32
2019-03-15T02:57:02.423Z,1002.32
2019-03-15T02:58:02.507Z,1002.23
2019-03-15T02:59:01.862Z,1002.23
2019-03-15T03:00:04.025Z,1002.23
2019-03-15T03:01:01.779Z,1002.23
2019-03-15T03:02:01.937Z,1002.18
2019-03-15T03:03:02.226Z,1002.18
2019-03-15T03:04:02.345Z,1002.18
2019-03-15T03:05:02.690Z,1002.26
2019-03-15T03:06:01.886Z,1002.26
2019-03-15T03:07:02.049Z,1002.26
2019-03-15T03:08:02.398Z,1002.26
2019-03-15T03:09:02.558Z,1002.33
2019-03-15T03:10:02.757Z,1002.33
2019-03-15T03:11:02.079Z,1002.33
2019-03-15T03:12:02.299Z,1002.33
2019-03-15T03:13:02.536Z,1002.18
2019-03-15T03:14:01.644Z,1002.18
2019-03-15T03:15:01.896Z,1002.18
2019-03-15T03:16:02.089Z,1002.18
2019-03-15T03:17:02.340Z,1002.36
2019-03-15T03:18:02.645Z,1002.36
2019-03-15T03:19:01.835Z,1002.36
2019-03-15T03:20:02.084Z,1002.36
2019-03-15T03:21:02.612Z,1002.37
2019-03-15T03:22:02.519Z,1002.37
2019-03-15T03:23:01.776Z,1002.37
2019-03-15T03:24:01.822Z,1002.37
2019-03-15T03:25:02.107Z,1002.3
2019-03-15T03:26:02.528Z,1002.3
2019-03-15T03:27:02.305Z,1002.3
2019-03-15T03:28:02.095Z,1002.3
2019-03-15T03:29:02.270Z,1002.21
2019-03-15T03:30:02.544Z,1002.21
2019-03-15T03:31:02.198Z,1002.21
2019-03-15T03:32:02.394Z,1002.21
2019-03-15T03:33:02.556Z,1002.27
2019-03-15T03:34:01.843Z,1002.27
2019-03-15T03:35:02.370Z,1002.27
2019-03-15T03:36:02.285Z,1002.27
2019-03-15T03:37:02.475Z,1002.24
2019-03-15T03:38:01.656Z,1002.24
2019-03-15T03:39:01.910Z,1002.24
2019-03-15T03:40:03.025Z,1002.24
2019-03-15T03:41:02.272Z,1002.35
2019-03-15T03:42:02.533Z,1002.35
2019-03-15T03:43:01.839Z,1002.35
2019-03-15T03:44:02.023Z,1002.35
2019-03-15T03:45:02.346Z,1002.25
2019-03-15T03:46:02.689Z,1002.25
2019-03-15T03:47:01.840Z,1002.25
2019-03-15T03:48:02.079Z,1002.25
2019-03-15T03:49:02.312Z,1002.09
2019-03-15T03:50:02.573Z,1002.09
2019-03-15T03:51:01.878Z,1002.09
2019-03-15T03:52:02.997Z,1002.09
2019-03-15T03:53:02.272Z,1002.13
2019-03-15T03:54:02.500Z,1002.13
2019-03-15T03:55:01.705Z,1002.13
2019-03-15T03:56:01.931Z,1002.13
2019-03-15T03:57:02.081Z,1002.13
2019-03-15T03:58:02.835Z,1002.13
2019-03-15T03:59:02.618Z,1002.13
2019-03-15T04:00:01.886Z,1002.13
2019-03-15T04:01:02.151Z,1002.07
2019-03-15T04:02:02.243Z,1002.07
2019-03-15T04:03:02.491Z,1002.07
2019-03-15T04:04:01.744Z,1002.07
2019-03-15T04:05:01.999Z,1001.96
2019-03-15T04:06:02.319Z,1001.96
2019-03-15T04:07:02.537Z,1001.96
2019-03-15T04:08:01.735Z,1001.96
2019-03-15T04:09:01.902Z,1001.84
2019-03-15T04:10:05.396Z,1001.84
2019-03-15T04:11:02.518Z,1001.84
2019-03-15T04:12:01.645Z,1001.84
2019-03-15T04:13:02.143Z,1001.74
2019-03-15T04:14:02.458Z,1001.74
2019-03-15T04:15:02.638Z,1001.74
2019-03-15T04:16:01.931Z,1001.74
2019-03-15T04:17:02.144Z,1001.59
2019-03-15T04:18:02.407Z,1001.59
2019-03-15T04:19:02.567Z,1001.59
2019-03-15T04:20:01.891Z,1001.59
2019-03-15T04:21:01.975Z,1001.6
2019-03-15T04:22:02.261Z,1001.6
2019-03-15T04:23:02.633Z,1001.6
2019-03-15T04:24:01.795Z,1001.6
2019-03-15T04:25:02.616Z,1001.57
2019-03-15T04:26:02.283Z,1001.57
2019-03-15T04:27:02.495Z,1001.57
2019-03-15T04:28:01.677Z,1001.57
2019-03-15T04:29:01.914Z,1001.53
2019-03-15T04:30:02.509Z,1001.53
2019-03-15T04:31:02.402Z,1001.53
2019-03-15T04:32:02.573Z,1001.53
2019-03-15T04:33:01.919Z,1001.35
2019-03-15T04:34:02.149Z,1001.35
2019-03-15T04:35:02.637Z,1001.35
2019-03-15T04:36:02.548Z,1001.35
2019-03-15T04:37:01.732Z,1001.34
2019-03-15T04:38:02.016Z,1001.34
2019-03-15T04:39:02.175Z,1001.34
2019-03-15T04:40:02.577Z,1001.34
2019-03-15T04:41:01.830Z,1001.36
2019-03-15T04:42:02.406Z,1001.36
2019-03-15T04:43:01.736Z,1001.36
2019-03-15T04:44:01.783Z,1001.2
2019-03-15T04:45:02.057Z,1001.2
2019-03-15T04:46:02.260Z,1001.2
2019-03-15T04:47:02.504Z,1001.2
2019-03-15T04:48:01.808Z,1001.21
2019-03-15T04:49:01.977Z,1001.21
2019-03-15T04:50:02.203Z,1001.21
2019-03-15T04:51:02.455Z,1001.21
2019-03-15T04:52:01.650Z,1001.03
2019-03-15T04:53:01.920Z,1001.03
2019-03-15T04:54:05.415Z,1001.03
2019-03-15T04:55:02.391Z,1001.03
2019-03-15T04:56:01.644Z,1001
2019-03-15T04:57:01.792Z,1001
2019-03-15T04:58:02.129Z,1001
2019-03-15T04:59:02.325Z,1001
2019-03-15T05:00:04.003Z,1000.95
2019-03-15T05:01:01.801Z,1000.95
2019-03-15T05:02:02.017Z,1000.95
2019-03-15T05:03:02.252Z,1000.95
2019-03-15T05:04:02.504Z,1000.82
2019-03-15T05:05:01.702Z,1000.82
2019-03-15T05:06:04.322Z,1000.82
2019-03-15T05:07:02.101Z,1000.82
2019-03-15T05:08:02.375Z,1000.67
2019-03-15T05:09:02.564Z,1000.67
2019-03-15T05:10:01.815Z,1000.67
2019-03-15T05:11:01.959Z,1000.67
2019-03-15T05:12:02.149Z,1000.75
2019-03-15T05:13:02.399Z,1000.75
2019-03-15T05:14:01.696Z,1000.75
2019-03-15T05:15:01.997Z,1000.75
2019-03-15T05:16:02.229Z,1000.72
2019-03-15T05:17:02.543Z,1000.72
2019-03-15T05:18:02.595Z,1000.72
2019-03-15T05:19:02.133Z,1000.72
2019-03-15T05:20:02.089Z,1000.6
2019-03-15T05:21:02.317Z,1000.6
2019-03-15T05:22:02.577Z,1000.6
2019-03-15T05:23:01.809Z,1000.6
2019-03-15T05:24:01.962Z,1000.53
2019-03-15T05:25:02.299Z,1000.53
2019-03-15T05:26:02.394Z,1000.53
2019-03-15T05:27:02.551Z,1000.53
2019-03-15T05:28:01.804Z,1000.53
2019-03-15T05:29:01.976Z,1000.53
2019-03-15T05:30:01.978Z,1000.53
2019-03-15T05:31:02.078Z,1000.53
2019-03-15T05:32:02.345Z,1000.53
2019-03-15T05:33:02.546Z,1000.53
2019-03-15T05:34:01.836Z,1000.53
2019-03-15T05:35:02.113Z,1000.53
2019-03-15T05:36:02.306Z,1000.53
2019-03-15T05:37:02.581Z,1000.53
2019-03-15T05:38:01.769Z,1000.53
2019-03-15T05:39:02.038Z,1000.53
2019-03-15T05:40:02.316Z,1000.53
2019-03-15T05:41:02.465Z,1000.53
2019-03-15T05:42:01.710Z,1000.53
2019-03-15T05:43:01.885Z,1000.53
2019-03-15T05:44:02.055Z,1000.53
2019-03-15T05:45:02.290Z,1000.53
2019-03-15T05:46:02.526Z,1000.53
2019-03-15T05:47:01.685Z,1000.53
2019-03-15T05:48:01.939Z,1000.53
2019-03-15T05:49:02.242Z,1000.53
2019-03-15T05:50:02.515Z,1000.53
2019-03-15T05:51:01.718Z,1000.53
2019-03-15T05:52:01.924Z,1000.53
2019-03-15T05:53:02.254Z,1000.53
2019-03-15T05:54:02.348Z,1000.53
2019-03-15T05:55:02.560Z,1000.53
2019-03-15T05:56:01.777Z,1000.53
2019-03-15T05:57:02.072Z,1000.53
2019-03-15T05:58:02.285Z,1000.53
2019-03-15T05:59:02.541Z,1000.53
2019-03-15T06:00:03.773Z,1000.53
2019-03-15T06:01:02.575Z,1000.53
2019-03-15T06:02:01.756Z,1000.53
2019-03-15T06:03:02.042Z,1000.53
2019-03-15T06:04:02.213Z,1000.53
2019-03-15T06:05:02.366Z,1000.53
2019-03-15T06:06:02.516Z,1000.53
2019-03-15T06:07:01.712Z,1000.53
2019-03-15T06:08:01.946Z,1000.53
2019-03-15T06:09:02.178Z,1000.53
2019-03-15T06:10:02.380Z,1000.53
2019-03-15T06:11:02.545Z,1000.53
2019-03-15T06:12:01.842Z,1000.53
2019-03-15T06:13:01.982Z,1000.53
2019-03-15T06:14:02.569Z,1000.53
2019-03-15T06:15:02.437Z,1000.53
2019-03-15T06:16:01.691Z,1000.53
2019-03-15T06:17:01.898Z,1000.53
2019-03-15T06:18:02.209Z,1000.53
2019-03-15T06:19:02.361Z,1000.53
2019-03-15T06:20:02.509Z,1000.53
2019-03-15T06:21:01.777Z,1000.53
2019-03-15T06:22:01.868Z,1000.53
2019-03-15T06:23:02.085Z,1000.53
2019-03-15T06:24:02.360Z,1000.53
2019-03-15T06:25:02.625Z,1000.53
2019-03-15T06:26:01.835Z,1000.53
2019-03-15T06:27:01.734Z,1000.53
2019-03-15T06:28:01.948Z,1000.53
2019-03-15T06:29:02.219Z,1000.53
2019-03-15T06:30:02.345Z,1000.53
2019-03-15T06:31:02.209Z,1000.53
2019-03-15T06:32:02.414Z,1000.53
2019-03-15T06:33:02.644Z,1000.53
2019-03-15T06:34:01.818Z,1000.53
2019-03-15T06:35:02.089Z,1000.53
2019-03-15T06:36:02.307Z,1000.53
2019-03-15T06:37:02.496Z,1000.53
2019-03-15T06:38:01.692Z,1000.53
2019-03-15T06:39:01.883Z,1000.53
2019-03-15T06:40:03.212Z,1000.53
2019-03-15T06:41:02.289Z,1000.53
2019-03-15T06:42:02.510Z,1000.53
2019-03-15T06:43:01.698Z,1000.53
2019-03-15T06:44:01.866Z,1000.53
2019-03-15T06:45:02.066Z,1000.53
2019-03-15T06:46:02.308Z,1000.53
2019-03-15T06:47:02.467Z,1000.53
2019-03-15T06:48:01.656Z,1000.53
2019-03-15T06:49:01.890Z,1000.53
2019-03-15T06:50:02.116Z,1000.53
2019-03-15T06:51:02.315Z,1000.53
2019-03-15T06:52:02.485Z,1000.53
2019-03-15T06:53:01.826Z,1000.53
2019-03-15T06:54:12.216Z,1000.53
2019-03-15T06:55:05.789Z,1000.53
2019-03-15T06:56:02.439Z,1000.53
2019-03-15T06:57:02.570Z,1000.53
2019-03-15T06:58:01.773Z,1000.53
2019-03-15T06:59:02.037Z,1000.53
2019-03-15T07:00:04.410Z,1000.53
2019-03-15T07:01:01.722Z,1000.53
2019-03-15T07:02:01.954Z,1000.53
2019-03-15T07:03:02.212Z,1000.53
2019-03-15T07:04:02.550Z,1000.53
2019-03-15T07:05:01.781Z,1000.53
2019-03-15T07:06:01.919Z,1000.53
2019-03-15T07:07:02.234Z,1000.53
2019-03-15T07:08:02.409Z,1000.53
2019-03-15T07:09:02.673Z,1000.53
2019-03-15T07:10:02.222Z,1000.53
2019-03-15T07:11:02.097Z,1000.53
2019-03-15T07:12:11.080Z,1000.53
2019-03-15T07:13:02.495Z,1000.53
2019-03-15T07:14:01.780Z,1000.53
2019-03-15T07:15:02.049Z,1000.53
2019-03-15T07:16:02.286Z,1000.53
2019-03-15T07:17:02.518Z,1000.53
2019-03-15T07:18:01.684Z,1000.53
2019-03-15T07:19:03.390Z,1000.53
2019-03-15T07:20:01.919Z,1000.53
2019-03-15T07:21:02.054Z,1000.53
2019-03-15T07:22:02.331Z,1000.53
2019-03-15T07:23:02.495Z,1000.53
2019-03-15T07:24:01.798Z,1000.53
2019-03-15T07:25:01.701Z,1000.53
2019-03-15T07:26:01.970Z,1000.53
2019-03-15T07:27:13.860Z,1000.53
2019-03-15T07:28:02.422Z,1000.53
2019-03-15T07:29:02.661Z,1000.53
2019-03-15T07:30:01.973Z,1000.53
2019-03-15T07:31:02.038Z,1000.53
2019-03-15T07:32:02.295Z,1000.53
2019-03-15T07:33:02.544Z,1000.53
2019-03-15T07:34:01.676Z,1000.53
2019-03-15T07:35:02.020Z,1000.53
2019-03-15T07:36:01.686Z,1000.53
2019-03-15T07:37:01.860Z,1000.53
2019-03-15T07:38:02.099Z,1000.53
2019-03-15T07:39:02.281Z,1000.53
2019-03-15T07:40:02.630Z,1000.53
2019-03-15T07:41:02.486Z,1000.53
2019-03-15T07:42:01.715Z,1000.53
2019-03-15T07:43:05.555Z,1000.53
2019-03-15T07:44:02.225Z,1000.53
2019-03-15T07:45:02.589Z,1000.53
2019-03-15T07:46:01.777Z,1000.53
2019-03-15T07:47:01.979Z,1000.53
2019-03-15T07:48:01.741Z,1000.53
2019-03-15T07:49:01.982Z,1000.53
2019-03-15T07:50:02.271Z,1000.53
2019-03-15T07:51:02.361Z,1000.53
2019-03-15T07:52:04.431Z,1000.53
2019-03-15T07:53:02.569Z,1000.53
2019-03-15T07:54:01.745Z,1000.53
2019-03-15T07:55:02.072Z,1000.53
2019-03-15T07:56:02.293Z,1000.53
2019-03-15T07:57:02.438Z,1000.53
2019-03-15T07:58:01.637Z,1000.53
2019-03-15T07:59:01.862Z,1000.53
2019-03-15T08:00:03.995Z,1000.53
2019-03-15T08:01:01.717Z,1000.53
2019-03-15T08:02:02.003Z,1000.53
2019-03-15T08:03:02.144Z,1000.53
2019-03-15T08:04:17.723Z,1000.53
2019-03-15T08:05:02.723Z,1000.53
2019-03-15T08:06:01.810Z,1000.53
2019-03-15T08:07:01.974Z,1000.53
2019-03-15T08:08:02.282Z,1000.53
2019-03-15T08:09:02.435Z,1000.53
2019-03-15T08:10:02.566Z,1000.53
2019-03-15T08:11:01.774Z,1000.53
2019-03-15T08:12:02.040Z,1000.53
2019-03-15T08:13:02.282Z,1000.53
2019-03-15T08:14:02.406Z,1000.53
2019-03-15T08:15:02.611Z,1000.53
2019-03-15T08:16:01.781Z,1000.53
2019-03-15T08:17:01.917Z,1000.53
2019-03-15T08:18:02.132Z,1000.53
2019-03-15T08:19:05.545Z,1000.53
2019-03-15T08:20:02.513Z,1000.53
2019-03-15T08:21:01.621Z,1000.53
2019-03-15T08:22:01.905Z,1000.53
2019-03-15T08:23:01.773Z,1000.53
2019-03-15T08:24:01.983Z,1000.53
2019-03-15T08:25:02.159Z,1000.53
2019-03-15T08:26:02.442Z,1000.53
2019-03-15T08:27:02.609Z,1000.53
2019-03-15T08:28:02.061Z,1000.53
2019-03-15T08:29:02.020Z,1000.53
2019-03-15T08:30:02.324Z,1000.53
2019-03-15T08:31:02.504Z,1000.53
2019-03-15T08:32:01.660Z,1000.53
2019-03-15T08:33:11.440Z,1000.53
2019-03-15T08:34:02.150Z,1000.53
2019-03-15T08:35:04.569Z,1000.53
2019-03-15T08:36:02.286Z,1000.53
2019-03-15T08:37:02.554Z,1000.53
2019-03-15T08:38:05.785Z,1000.53
2019-03-15T08:39:02.622Z,1000.53
2019-03-15T08:40:01.873Z,1000.53
2019-03-15T08:41:02.115Z,1000.53
2019-03-15T08:42:02.225Z,1000.53
2019-03-15T08:43:02.345Z,1000.53
2019-03-15T08:44:02.612Z,1000.53
2019-03-15T08:45:01.826Z,1000.53
2019-03-15T08:46:03.546Z,1000.53
2019-03-15T08:47:02.274Z,1000.53
2019-03-15T08:48:02.476Z,1000.53
2019-03-15T08:49:02.604Z,1000.53
2019-03-15T08:50:01.824Z,1000.53
2019-03-15T08:51:01.961Z,1000.53
2019-03-15T08:52:04.579Z,1000.53
2019-03-15T08:53:02.368Z,1000.53
2019-03-15T08:54:02.488Z,1000.53
2019-03-15T08:55:06.167Z,1000.53
2019-03-15T08:56:01.992Z,1000.53
2019-03-15T08:57:02.145Z,1000.53
2019-03-15T08:58:21.697Z,1000.53
2019-03-15T08:59:02.527Z,1000.53
2019-03-15T09:00:03.984Z,1000.53
2019-03-15T09:01:01.803Z,1000.53
2019-03-15T09:02:01.879Z,1000.53
2019-03-15T09:03:02.150Z,1000.53
2019-03-15T09:04:02.102Z,1000.53
2019-03-15T09:05:02.394Z,1000.53
2019-03-15T09:06:02.504Z,1000.53
2019-03-15T09:07:01.728Z,1000.53
2019-03-15T09:08:01.948Z,1000.53
2019-03-15T09:09:02.143Z,1000.53
2019-03-15T09:10:04.100Z,1000.53
2019-03-15T09:11:02.615Z,1000.53
2019-03-15T09:12:01.787Z,1000.53
2019-03-15T09:13:02.051Z,1000.53
2019-03-15T09:14:02.232Z,1000.53
2019-03-15T09:15:02.592Z,1000.53
2019-03-15T09:16:01.721Z,1000.53
2019-03-15T09:17:01.925Z,1000.53
2019-03-15T09:18:02.158Z,1000.53
2019-03-15T09:19:02.333Z,1000.53
2019-03-15T09:20:02.593Z,1000.53
2019-03-15T09:21:01.717Z,1000.53
2019-03-15T09:22:01.989Z,1000.53
2019-03-15T09:23:02.203Z,1000.53
2019-03-15T09:24:02.367Z,1000.53
2019-03-15T09:25:02.021Z,1000.53
2019-03-15T09:26:01.981Z,1000.53
2019-03-15T09:27:02.114Z,1000.53
2019-03-15T09:28:02.311Z,1000.53
2019-03-15T09:29:02.443Z,1000.53
2019-03-15T09:30:01.716Z,1000.53
2019-03-15T09:31:01.878Z,1000.53
2019-03-15T09:32:09.617Z,1000.53
2019-03-15T09:33:03.737Z,1000.53
2019-03-15T18:40:02.871Z,1000.53
2019-03-15T18:41:01.835Z,1000.53
2019-03-15T18:42:01.912Z,1000.53
2019-03-15T18:43:02.123Z,1005.73
2019-03-15T18:44:02.362Z,1005.73
2019-03-15T18:45:01.651Z,1005.73
2019-03-15T18:46:01.965Z,1005.73
2019-03-15T18:47:02.159Z,1005.72
2019-03-15T18:48:02.344Z,1005.72
2019-03-15T18:49:02.554Z,1005.72
2019-03-15T18:50:01.785Z,1005.72
2019-03-15T18:51:02.014Z,1005.86
2019-03-15T18:52:02.203Z,1005.86
2019-03-15T18:53:02.512Z,1005.86
2019-03-15T18:54:01.758Z,1005.86
2019-03-15T18:55:02.068Z,1005.91
2019-03-15T18:56:02.318Z,1005.91
2019-03-15T18:57:02.502Z,1005.91
2019-03-15T18:58:01.685Z,1005.91
2019-03-15T18:59:02.257Z,1005.94
2019-03-15T19:00:03.692Z,1005.94
2019-03-15T19:01:02.473Z,1005.94
2019-03-15T19:02:02.565Z,1005.94
2019-03-15T19:03:01.752Z,1005.94
2019-03-15T19:04:02.020Z,1005.94
2019-03-15T19:05:02.315Z,1005.94
2019-03-15T19:06:02.429Z,1005.94
2019-03-15T19:07:01.669Z,1006.05
2019-03-15T19:08:01.882Z,1006.05
2019-03-15T19:09:02.134Z,1006.05
2019-03-15T19:10:02.469Z,1006.05
2019-03-15T19:11:01.737Z,1006.26
2019-03-15T19:12:01.895Z,1006.26
2019-03-15T19:13:02.086Z,1006.26
2019-03-15T19:14:02.318Z,1006.26
2019-03-15T19:15:02.451Z,1006.24
2019-03-15T19:16:02.580Z,1006.24
2019-03-15T19:17:01.932Z,1006.24
2019-03-15T19:18:02.080Z,1006.24
2019-03-15T19:19:02.299Z,1006.44
2019-03-15T19:20:02.631Z,1006.44
2019-03-15T19:21:01.781Z,1006.44
2019-03-15T19:22:02.230Z,1006.44
2019-03-15T19:23:02.262Z,1006.35
2019-03-15T19:24:02.437Z,1006.35
2019-03-15T19:25:01.648Z,1006.35
2019-03-15T19:26:02.017Z,1006.35
2019-03-15T19:27:02.220Z,1006.26
2019-03-15T19:28:02.337Z,1006.26
2019-03-15T19:29:01.965Z,1006.26
2019-03-15T19:30:02.312Z,1006.26
2019-03-15T19:31:02.527Z,1006.25
2019-03-15T19:32:01.627Z,1006.25
2019-03-15T19:33:01.811Z,1006.25
2019-03-15T19:34:02.018Z,1006.25
2019-03-15T19:35:02.301Z,1006.36
2019-03-15T19:36:02.544Z,1006.36
2019-03-15T19:37:01.651Z,1006.36
2019-03-15T19:38:01.891Z,1006.36
2019-03-15T19:39:02.168Z,1006.3
2019-03-15T19:40:02.428Z,1006.3
2019-03-15T19:41:01.711Z,1006.3
2019-03-15T19:42:02.627Z,1006.3
2019-03-15T19:43:01.784Z,1006.3
2019-03-15T19:44:02.057Z,1006.3
2019-03-15T19:45:02.245Z,1006.3
2019-03-15T19:46:02.444Z,1006.3
2019-03-15T19:47:01.630Z,1006.35
2019-03-15T19:48:01.757Z,1006.35
2019-03-15T19:49:02.086Z,1006.35
2019-03-15T19:50:02.455Z,1006.35
2019-03-15T19:51:01.705Z,1006.42
2019-03-15T19:52:02.079Z,1006.42
2019-03-15T19:53:02.223Z,1006.42
2019-03-15T19:54:02.412Z,1006.42
2019-03-15T19:55:02.639Z,1006.6
2019-03-15T19:56:01.941Z,1006.6
2019-03-15T19:57:02.139Z,1006.6
2019-03-15T19:58:02.275Z,1006.6
2019-03-15T19:59:02.476Z,1006.52
2019-03-15T20:00:09.031Z,1006.52
2019-03-15T20:01:01.912Z,1006.52
2019-03-15T20:02:02.082Z,1006.52
2019-03-15T20:03:02.300Z,1006.59
2019-03-15T20:04:02.521Z,1006.59
2019-03-15T20:05:01.906Z,1006.59
2019-03-15T20:06:02.017Z,1006.59
2019-03-15T20:07:01.947Z,1006.54
2019-03-15T20:08:02.169Z,1006.54
2019-03-15T20:09:02.304Z,1006.54
2019-03-15T20:10:02.637Z,1006.54
2019-03-15T20:11:01.868Z,1006.42
2019-03-15T20:12:01.980Z,1006.42
2019-03-15T20:13:03.217Z,1006.42
2019-03-15T20:14:02.543Z,1006.58
2019-03-15T20:15:01.743Z,1006.58
2019-03-15T20:16:02.137Z,1006.58
2019-03-15T20:17:02.144Z,1006.58
2019-03-15T20:18:02.408Z,1006.57
2019-03-15T20:19:02.588Z,1006.57
2019-03-15T20:20:01.818Z,1006.57
2019-03-15T20:21:02.863Z,1006.57
2019-03-15T20:22:01.878Z,1006.6
2019-03-15T20:23:02.144Z,1006.6
2019-03-15T20:24:02.372Z,1006.6
2019-03-15T20:25:02.681Z,1006.6
2019-03-15T20:26:01.871Z,1006.54
2019-03-15T20:27:02.118Z,1006.54
2019-03-15T20:28:04.635Z,1006.54
2019-03-15T20:29:02.581Z,1006.54
2019-03-15T20:30:01.814Z,1006.62
2019-03-15T20:31:01.950Z,1006.62
2019-03-15T20:32:02.509Z,1006.62
2019-03-15T20:33:02.528Z,1006.62
2019-03-15T20:34:01.734Z,1006.77
2019-03-15T20:35:02.023Z,1006.77
2019-03-15T20:36:02.188Z,1006.77
2019-03-15T20:37:02.474Z,1006.77
2019-03-15T20:38:01.668Z,1006.63
2019-03-15T20:39:01.828Z,1006.63
2019-03-15T20:40:02.143Z,1006.63
2019-03-15T20:41:02.297Z,1006.63
2019-03-15T20:42:01.613Z,1006.63
2019-03-15T20:43:01.804Z,1006.63
2019-03-15T20:44:02.137Z,1006.63
2019-03-15T20:45:02.318Z,1006.63
2019-03-15T20:46:02.603Z,1006.78
2019-03-15T20:47:01.789Z,1006.78
2019-03-15T20:48:02.051Z,1006.78
2019-03-15T20:49:02.287Z,1006.78
2019-03-15T20:50:02.638Z,1006.67
2019-03-15T20:51:01.829Z,1006.67
2019-03-15T20:52:02.060Z,1006.67
2019-03-15T20:53:12.986Z,1006.67
2019-03-15T20:54:02.466Z,1006.92
2019-03-15T20:55:01.726Z,1006.92
2019-03-15T20:56:01.961Z,1006.92
2019-03-15T20:57:02.159Z,1006.92
2019-03-15T20:58:02.296Z,1006.82
2019-03-15T20:59:02.546Z,1006.82
2019-03-15T21:00:04.282Z,1006.82
2019-03-15T21:01:02.102Z,1006.82
2019-03-15T21:02:02.444Z,1006.87
2019-03-15T21:03:02.543Z,1006.87
2019-03-15T21:04:01.741Z,1006.87
2019-03-15T21:05:02.042Z,1006.87
2019-03-15T21:06:02.262Z,1006.82
2019-03-15T21:07:02.558Z,1006.82
2019-03-15T21:08:01.721Z,1006.82
2019-03-15T21:09:01.984Z,1006.82
2019-03-15T21:10:02.242Z,1006.8
2019-03-15T21:11:02.448Z,1006.8
2019-03-15T21:12:02.649Z,1006.8
2019-03-15T21:13:01.811Z,1006.8
2019-03-15T21:14:02.107Z,1006.73